createdAt,value
2022-08-09T00:02:13.985Z,100377.69
2022-08-09T00:18:05.171Z,100369.38
2022-08-09T00:32:38.435Z,100363.78
2022-08-09T00:47:40.731Z,100377.34
2022-08-09T01:02:55.590Z,100366.16
2022-08-09T01:18:29.855Z,100376.25
2022-08-09T01:33:37.584Z,100365.44
2022-08-09T01:48:42.289Z,100376.22
2022-08-09T02:03:46.123Z,100376.09
2022-08-09T02:18:49.422Z,100383.50
2022-08-09T02:34:07.353Z,100390.56
2022-08-09T02:49:19.515Z,100397.59
2022-08-09T03:04:32.308Z,100405.81
2022-08-09T03:19:59.311Z,100401.53
2022-08-09T03:34:58.139Z,100416.41
2022-08-09T03:50:01.555Z,100412.41
2022-08-09T04:05:17.304Z,100415.06
2022-08-09T04:20:28.971Z,100420.75
2022-08-09T04:35:32.785Z,100427.59
2022-08-09T04:50:38.115Z,100418.69
2022-08-09T05:05:52.278Z,100416.22
2022-08-09T05:20:54.717Z,100413.44
2022-08-09T05:35:57.203Z,100411.31
2022-08-09T05:51:16.841Z,100409.50
2022-08-09T06:06:21.259Z,100399.63
2022-08-09T06:21:24.241Z,100393.69
2022-08-09T06:36:27.388Z,100384.59
2022-08-09T06:51:39.918Z,100390.75
2022-08-09T07:06:42.100Z,100402.91
2022-08-09T07:21:55.651Z,100394.06
2022-08-09T07:37:02.763Z,100398.16
2022-08-09T07:52:17.817Z,100391.94
2022-08-09T08:08:06.501Z,100388.06
2022-08-09T08:22:41.941Z,100383.75
2022-08-09T08:38:04.419Z,100379.13
2022-08-09T08:53:21.907Z,100388.50
2022-08-09T09:08:30.082Z,100365.69
2022-08-09T09:23:49.587Z,100368.63
2022-08-09T09:39:09.996Z,100348.34
2022-08-09T09:54:21.009Z,100348.59
2022-08-09T10:09:24.181Z,100345.34
2022-08-09T10:24:35.845Z,100340.25
2022-08-09T10:39:49.272Z,100322.06
2022-08-09T10:54:53.882Z,100312.63
2022-08-09T11:09:59.815Z,100295.66
2022-08-09T11:25:45.632Z,100292.81
2022-08-09T11:40:52.985Z,100283.16
2022-08-09T11:56:02.593Z,100272.16
2022-08-09T12:11:05.224Z,100263.75
2022-08-09T12:26:25.481Z,100247.16
2022-08-09T12:41:39.757Z,100251.28
2022-08-09T12:56:51.257Z,100244.47
2022-08-09T13:12:02.517Z,100242.34
2022-08-09T13:27:08.437Z,100240.09
2022-08-09T13:42:13.393Z,100226.78
2022-08-09T13:57:36.575Z,100223.94
2022-08-09T14:12:38.086Z,100205.22
2022-08-09T14:27:56.851Z,100210.44
2022-08-09T14:42:59.340Z,100209.41
2022-08-09T14:58:04.835Z,100213.09
2022-08-09T15:30:56.162Z,100207.78
2022-08-09T15:45:14.057Z,100195.06
2022-08-09T16:00:26.765Z,100198.50
2022-08-09T16:16:10.306Z,100203.75
2022-08-09T16:30:58.717Z,100206.38
2022-08-09T16:46:01.605Z,100212.50
2022-08-09T17:01:03.989Z,100216.66
2022-08-09T17:16:06.449Z,100223.41
2022-08-09T17:31:09.730Z,100224.78
2022-08-09T17:46:11.609Z,100226.16
2022-08-09T18:01:22.682Z,100237.06
2022-08-09T18:16:29.547Z,100243.34
2022-08-09T18:31:55.213Z,100251.16
2022-08-09T18:47:07.776Z,100249.94
2022-08-09T19:02:15.056Z,100247.72
2022-08-09T19:17:18.450Z,100246.25
2022-08-09T19:32:26.631Z,100230.97
2022-08-09T19:47:31.516Z,100234.88
2022-08-09T20:04:07.558Z,100233.38
2022-08-09T20:18:02.412Z,100230.97
2022-08-09T20:33:04.402Z,100234.94
2022-08-09T20:48:08.462Z,100236.97
2022-08-09T21:03:13.202Z,100233.88
2022-08-09T21:18:27.451Z,100215.56
2022-08-09T21:33:36.238Z,100218.34
2022-08-09T21:48:39.857Z,100206.75
2022-08-09T22:03:48.395Z,100200.91
2022-08-09T22:19:01.198Z,100207.13
2022-08-09T22:34:14.476Z,100195.88
2022-08-09T22:49:17.160Z,100177.00
2022-08-09T23:04:19.550Z,100171.84
2022-08-09T23:19:21.460Z,100156.78
2022-08-09T23:34:23.396Z,100153.06
2022-08-09T23:49:26.310Z,100155.38
